Time;durP1;ratioP1;P1;durP2;ratioP2;P2;SDS_P1;SDS_P2;PMS_P1;PMS_P2;Temp;Humidity;BMP_temperature;BMP_pressure;BME280_temperature;BME280_humidity;BME280_pressure;Samples;Min_cycle;Max_cycle;Signal;HPM_P1;HPM_P2
2023/05/07 00:00:19;;;;;;;9.53;8.80;;;15.70;99.90;;;;;;5078503;28;20266;-65
2023/05/07 00:02:45;;;;;;;9.23;8.63;;;15.80;99.90;;;;;;5075163;28;20628;-65
2023/05/07 00:05:11;;;;;;;9.70;8.90;;;15.70;99.90;;;;;;5087967;28;20761;-65
2023/05/07 00:07:37;;;;;;;8.23;7.63;;;15.70;99.90;;;;;;5095244;28;20169;-65
2023/05/07 00:10:03;;;;;;;8.80;8.07;;;15.60;99.90;;;;;;5093072;28;20189;-65
2023/05/07 00:12:33;;;;;;;8.93;8.23;;;15.60;99.90;;;;;;5095030;28;20204;-65
2023/05/07 00:15:02;;;;;;;9.77;8.80;;;15.60;99.90;;;;;;5082035;28;20259;-66
2023/05/07 00:17:28;;;;;;;8.77;8.07;;;15.60;99.90;;;;;;5073476;28;20174;-66
2023/05/07 00:19:53;;;;;;;9.73;8.93;;;15.50;99.90;;;;;;5084035;28;20666;-65
2023/05/07 00:22:19;;;;;;;9.27;8.57;;;15.50;99.90;;;;;;5094843;28;20218;-66
2023/05/07 00:24:44;;;;;;;9.20;8.50;;;15.50;99.90;;;;;;5086650;28;20174;-65
2023/05/07 00:27:10;;;;;;;9.63;8.83;;;15.50;99.90;;;;;;5074644;28;20689;-65
2023/05/07 00:29:36;;;;;;;8.90;8.20;;;15.50;99.90;;;;;;5090824;28;20646;-65
2023/05/07 00:32:02;;;;;;;9.20;8.50;;;15.40;99.90;;;;;;5094792;28;20205;-65
2023/05/07 00:34:27;;;;;;;9.20;8.33;;;15.40;99.90;;;;;;5079354;28;20291;-65
2023/05/07 00:36:53;;;;;;;8.40;7.57;;;15.40;99.90;;;;;;5074260;28;20190;-65
2023/05/07 00:39:18;;;;;;;9.17;8.43;;;15.30;99.90;;;;;;5074162;28;20170;-64
2023/05/07 00:41:44;;;;;;;8.40;7.80;;;15.20;99.90;;;;;;5074304;28;20167;-65
2023/05/07 00:44:10;;;;;;;9.93;9.13;;;15.20;99.90;;;;;;5074007;28;20181;-64
2023/05/07 00:46:36;;;;;;;9.63;8.07;;;15.10;99.90;;;;;;5076803;28;20206;-65
2023/05/07 00:49:01;;;;;;;9.40;8.50;;;15.00;99.90;;;;;;5094398;28;20170;-65
2023/05/07 00:51:28;;;;;;;8.73;7.93;;;14.90;99.90;;;;;;5092737;28;20173;-65
2023/05/07 00:53:54;;;;;;;9.07;8.37;;;14.90;99.90;;;;;;5074153;28;20163;-65
2023/05/07 00:56:22;;;;;;;8.53;7.83;;;14.80;99.90;;;;;;5073739;28;20205;-64
2023/05/07 00:58:48;;;;;;;9.30;8.60;;;14.80;99.90;;;;;;5073184;28;20220;-65
2023/05/07 01:01:16;;;;;;;8.83;8.03;;;14.80;99.90;;;;;;5073561;28;20174;-64
2023/05/07 01:03:42;;;;;;;9.03;8.23;;;14.90;99.90;;;;;;5092476;28;20170;-65
2023/05/07 01:06:09;;;;;;;7.73;7.20;;;14.90;99.90;;;;;;5079686;28;20352;-65
2023/05/07 01:08:36;;;;;;;8.47;7.87;;;14.90;99.90;;;;;;5073812;28;20261;-64
2023/05/07 01:11:03;;;;;;;8.97;8.17;;;14.90;99.90;;;;;;5085812;28;20174;-65
2023/05/07 01:13:29;;;;;;;9.17;8.30;;;15.00;99.90;;;;;;5093957;28;20207;-65
2023/05/07 01:15:55;;;;;;;8.77;8.07;;;15.00;99.90;;;;;;5082325;28;20252;-65
2023/05/07 01:18:21;;;;;;;8.90;8.30;;;15.00;99.90;;;;;;5073516;28;20202;-64
2023/05/07 01:20:47;;;;;;;8.70;7.90;;;15.10;99.90;;;;;;5081193;28;20555;-64
2023/05/07 01:23:13;;;;;;;8.30;7.60;;;15.10;99.90;;;;;;5092470;28;20177;-64
2023/05/07 01:25:38;;;;;;;9.07;8.23;;;15.10;99.90;;;;;;5085791;28;20204;-64
2023/05/07 01:28:05;;;;;;;8.90;8.17;;;15.10;99.90;;;;;;5072205;28;20186;-64
2023/05/07 01:30:32;;;;;;;9.50;8.70;;;15.20;99.90;;;;;;5074191;28;20206;-65
2023/05/07 01:33:08;;;;;;;8.50;7.90;;;15.20;99.90;;;;;;5073241;28;20595;-65
2023/05/07 01:35:47;;;;;;;8.87;8.17;;;15.20;99.90;;;;;;5073541;28;20229;-65
2023/05/07 01:38:13;;;;;;;9.37;8.57;;;15.20;99.90;;;;;;5073204;28;20178;-65
2023/05/07 01:40:39;;;;;;;8.90;8.10;;;15.20;99.90;;;;;;5084084;28;20203;-65
2023/05/07 01:43:05;;;;;;;9.23;8.43;;;15.20;99.90;;;;;;5093436;28;20178;-65
2023/05/07 01:45:32;;;;;;;8.70;7.90;;;15.20;99.90;;;;;;5081951;28;20198;-64
2023/05/07 01:47:59;;;;;;;8.67;7.97;;;15.20;99.90;;;;;;5073022;28;20197;-65
2023/05/07 01:50:25;;;;;;;9.00;8.23;;;15.20;99.90;;;;;;5080944;28;20200;-64
2023/05/07 01:52:51;;;;;;;8.53;7.83;;;15.20;99.90;;;;;;5093115;28;20209;-65
2023/05/07 01:55:17;;;;;;;8.30;7.60;;;15.10;99.90;;;;;;5086077;28;20213;-64
2023/05/07 01:57:43;;;;;;;8.83;8.10;;;15.10;99.90;;;;;;5072906;28;20596;-65
2023/05/07 02:00:09;;;;;;;8.50;7.90;;;15.10;99.90;;;;;;5076698;28;20233;-66
2023/05/07 02:02:35;;;;;;;8.80;8.10;;;15.00;99.90;;;;;;5092950;28;20182;-65
2023/05/07 02:05:01;;;;;;;9.10;8.40;;;15.00;99.90;;;;;;5089308;28;20178;-65
2023/05/07 02:07:27;;;;;;;8.87;8.23;;;15.00;99.90;;;;;;5072680;28;20175;-65
2023/05/07 02:09:55;;;;;;;8.70;8.00;;;14.90;99.90;;;;;;5073735;28;20234;-65
2023/05/07 02:12:21;;;;;;;8.83;8.20;;;14.80;99.90;;;;;;5092616;28;20174;-65
2023/05/07 02:14:46;;;;;;;7.90;7.30;;;14.80;99.90;;;;;;5092066;28;20205;-65
2023/05/07 02:17:12;;;;;;;8.20;7.60;;;14.70;99.90;;;;;;5072455;28;20209;-65
2023/05/07 02:19:38;;;;;;;8.53;7.90;;;14.60;99.90;;;;;;5072207;28;20231;-65
2023/05/07 02:22:03;;;;;;;8.13;7.53;;;14.50;99.90;;;;;;5090862;28;20177;-65
2023/05/07 02:24:29;;;;;;;8.37;7.77;;;14.50;99.90;;;;;;5092541;28;20165;-66
2023/05/07 02:26:55;;;;;;;9.00;8.30;;;14.30;99.90;;;;;;5075160;28;20194;-65
2023/05/07 02:29:21;;;;;;;8.23;7.53;;;14.20;99.90;;;;;;5085491;28;20181;-64
2023/05/07 02:31:50;;;;;;;8.93;8.23;;;14.20;99.90;;;;;;5092368;28;20179;-65
2023/05/07 02:34:19;;;;;;;8.47;7.77;;;14.10;99.90;;;;;;5076026;28;20260;-65
2023/05/07 02:36:45;;;;;;;7.93;7.33;;;14.00;99.90;;;;;;5072053;28;20202;-65
2023/05/07 02:39:12;;;;;;;8.60;7.73;;;13.90;99.90;;;;;;5086197;28;20189;-65
2023/05/07 02:41:38;;;;;;;8.83;8.13;;;13.90;99.90;;;;;;5092245;28;20185;-65
2023/05/07 02:44:04;;;;;;;9.67;8.77;;;13.80;99.90;;;;;;5078859;28;20599;-65
2023/05/07 02:46:30;;;;;;;8.30;7.70;;;13.70;99.90;;;;;;5071741;28;20723;-65
2023/05/07 02:48:55;;;;;;;9.47;8.70;;;13.70;99.90;;;;;;5082949;28;20177;-65
2023/05/07 02:51:22;;;;;;;8.73;7.93;;;13.70;99.90;;;;;;5091863;28;20169;-64
2023/05/07 02:53:48;;;;;;;10.37;9.47;;;13.70;99.90;;;;;;5082048;28;20170;-65
2023/05/07 02:56:14;;;;;;;9.77;8.97;;;13.70;99.90;;;;;;5070869;28;20212;-65
2023/05/07 02:58:40;;;;;;;10.27;9.37;;;13.70;99.90;;;;;;5071759;28;20200;-65
2023/05/07 03:01:06;;;;;;;9.17;8.37;;;13.70;99.90;;;;;;5070228;28;20248;-64
2023/05/07 03:03:32;;;;;;;10.03;9.03;;;13.80;99.90;;;;;;5077792;28;20208;-64
2023/05/07 03:05:57;;;;;;;10.13;9.33;;;13.80;99.90;;;;;;5091844;28;20237;-64
2023/05/07 03:08:23;;;;;;;9.50;8.80;;;13.80;99.90;;;;;;5086953;28;20210;-65
2023/05/07 03:10:49;;;;;;;11.20;9.03;;;13.90;99.90;;;;;;5071196;28;20167;-65
2023/05/07 03:13:15;;;;;;;9.40;8.50;;;14.00;99.90;;;;;;5073577;28;20242;-64
2023/05/07 03:15:40;;;;;;;9.50;8.70;;;14.00;99.90;;;;;;5091647;28;20240;-64
2023/05/07 03:18:06;;;;;;;9.03;8.30;;;14.00;99.90;;;;;;5089492;28;20189;-65
2023/05/07 03:20:32;;;;;;;9.63;8.73;;;14.00;99.90;;;;;;5071054;28;20166;-65
2023/05/07 03:22:57;;;;;;;9.47;8.77;;;14.00;99.90;;;;;;5071008;28;20512;-65
2023/05/07 03:25:23;;;;;;;9.57;8.77;;;14.00;99.90;;;;;;5088340;28;20198;-65
2023/05/07 03:27:48;;;;;;;9.43;8.73;;;14.00;99.90;;;;;;5071442;28;20181;-65
2023/05/07 03:30:14;;;;;;;9.10;8.40;;;14.00;99.90;;;;;;5089343;28;20670;-65
2023/05/07 03:32:40;;;;;;;9.57;8.77;;;14.00;99.90;;;;;;5091432;28;20265;-65
2023/05/07 03:35:06;;;;;;;9.03;8.43;;;14.00;99.90;;;;;;5074408;28;20753;-65
2023/05/07 03:37:31;;;;;;;8.10;7.40;;;14.00;99.90;;;;;;5071393;28;20200;-66
2023/05/07 03:39:57;;;;;;;7.83;7.17;;;14.00;99.90;;;;;;5085718;28;20177;-65
2023/05/07 03:42:23;;;;;;;8.07;7.37;;;13.90;99.90;;;;;;5091396;28;20169;-64
2023/05/07 03:44:48;;;;;;;7.53;7.03;;;13.80;99.90;;;;;;5077821;28;20182;-65
2023/05/07 03:47:14;;;;;;;7.40;6.70;;;13.80;99.90;;;;;;5071238;28;20172;-65
2023/05/07 03:49:40;;;;;;;9.53;7.90;;;13.80;99.90;;;;;;5082215;28;20256;-66
2023/05/07 03:52:06;;;;;;;8.10;7.40;;;13.70;99.90;;;;;;5081769;28;20272;-65
2023/05/07 03:54:32;;;;;;;9.90;7.40;;;13.70;99.90;;;;;;5090681;28;20173;-66
2023/05/07 03:56:57;;;;;;;8.07;7.27;;;13.70;99.90;;;;;;5087512;28;20234;-65
2023/05/07 03:59:23;;;;;;;11.87;7.50;;;13.70;99.90;;;;;;5070909;28;20163;-65
2023/05/07 04:01:48;;;;;;;7.73;7.03;;;13.60;99.90;;;;;;5072073;28;20273;-66
2023/05/07 04:04:14;;;;;;;9.17;7.20;;;13.70;99.90;;;;;;5091481;28;20188;-65
2023/05/07 04:06:41;;;;;;;7.80;7.20;;;13.70;99.90;;;;;;5071955;28;20226;-65
2023/05/07 04:09:06;;;;;;;7.60;6.97;;;13.60;99.90;;;;;;5070919;28;20189;-66
2023/05/07 04:11:32;;;;;;;7.83;7.23;;;13.60;99.90;;;;;;5088012;28;20182;-65
2023/05/07 04:13:57;;;;;;;8.33;7.63;;;13.60;99.90;;;;;;5091117;28;20200;-65
2023/05/07 04:16:23;;;;;;;8.87;7.80;;;13.60;99.90;;;;;;5090157;28;20293;-65
2023/05/07 04:18:49;;;;;;;8.20;7.50;;;13.60;99.90;;;;;;5091129;28;20728;-65
2023/05/07 04:21:16;;;;;;;8.07;7.47;;;13.60;99.90;;;;;;5077001;28;20181;-64
2023/05/07 04:23:41;;;;;;;8.50;7.73;;;13.70;99.90;;;;;;5071040;28;20224;-64
2023/05/07 04:26:07;;;;;;;12.10;7.67;;;13.70;99.90;;;;;;5082765;28;20611;-64
2023/05/07 04:28:33;;;;;;;8.20;7.50;;;13.80;99.90;;;;;;5083141;28;20178;-65
2023/05/07 04:30:59;;;;;;;7.97;7.17;;;13.80;99.90;;;;;;5070480;28;20636;-64
2023/05/07 04:33:25;;;;;;;7.90;7.30;;;13.90;99.90;;;;;;5076656;28;20185;-65
2023/05/07 04:35:50;;;;;;;8.67;7.87;;;13.90;99.90;;;;;;5093190;28;20201;-65
2023/05/07 04:38:16;;;;;;;8.90;8.10;;;14.00;99.90;;;;;;5092720;28;20663;-66
2023/05/07 04:40:42;;;;;;;8.27;7.67;;;14.10;99.90;;;;;;5094162;28;20188;-65
2023/05/07 04:43:08;;;;;;;9.27;8.37;;;14.10;99.90;;;;;;5091820;28;20182;-65
2023/05/07 04:45:35;;;;;;;9.13;8.33;;;14.20;99.90;;;;;;5074178;28;20186;-65
2023/05/07 04:48:00;;;;;;;8.47;7.77;;;14.30;99.90;;;;;;5074192;28;20639;-65
2023/05/07 04:50:26;;;;;;;8.33;7.60;;;14.50;99.90;;;;;;5073760;28;20177;-64
2023/05/07 04:52:52;;;;;;;8.40;7.70;;;14.60;99.90;;;;;;5082513;28;20287;-65
2023/05/07 04:55:18;;;;;;;8.60;7.90;;;14.60;99.90;;;;;;5094269;28;20193;-66
2023/05/07 04:57:43;;;;;;;8.80;8.03;;;14.70;99.90;;;;;;5078451;28;20170;-65
2023/05/07 05:00:10;;;;;;;7.80;7.00;;;14.70;99.90;;;;;;5087444;28;20181;-65
2023/05/07 05:02:35;;;;;;;8.17;7.57;;;14.80;99.90;;;;;;5094122;28;20244;-65
2023/05/07 05:05:02;;;;;;;7.73;7.03;;;14.80;99.90;;;;;;5080942;28;20182;-66
2023/05/07 05:07:28;;;;;;;8.87;7.90;;;14.90;99.90;;;;;;5074044;28;20171;-66
2023/05/07 05:09:54;;;;;;;8.87;8.23;;;15.00;99.90;;;;;;5084494;28;20197;-66
2023/05/07 05:12:20;;;;;;;8.47;7.77;;;15.10;99.90;;;;;;5080541;28;20181;-65
2023/05/07 05:14:45;;;;;;;7.90;7.30;;;15.20;99.90;;;;;;5093728;28;20669;-66
2023/05/07 05:17:11;;;;;;;7.77;6.97;;;15.20;99.90;;;;;;5089885;28;20177;-65
2023/05/07 05:19:36;;;;;;;7.57;6.97;;;15.20;99.90;;;;;;5072890;28;20204;-66
2023/05/07 05:22:03;;;;;;;7.53;6.83;;;15.30;99.90;;;;;;5075243;28;20517;-65
2023/05/07 05:24:29;;;;;;;7.50;6.90;;;15.40;99.90;;;;;;5093654;28;20165;-65
2023/05/07 05:26:56;;;;;;;12.90;6.77;;;15.40;99.90;;;;;;5073869;28;20217;-65
2023/05/07 05:29:21;;;;;;;7.20;6.70;;;15.50;99.90;;;;;;5073225;28;20531;-65
2023/05/07 05:31:47;;;;;;;7.37;6.50;;;15.50;99.90;;;;;;5090794;28;20295;-65
2023/05/07 05:34:13;;;;;;;6.47;5.97;;;15.50;99.90;;;;;;5093582;28;20650;-65
2023/05/07 05:36:38;;;;;;;6.53;6.03;;;15.60;99.90;;;;;;5077128;28;20690;-66
2023/05/07 05:39:04;;;;;;;6.33;5.93;;;15.60;99.90;;;;;;5073015;28;20182;-65
2023/05/07 05:41:30;;;;;;;8.90;8.40;;;15.70;99.90;;;;;;5087035;28;20176;-66
2023/05/07 05:43:55;;;;;;;6.83;6.40;;;15.70;99.90;;;;;;5093313;28;20249;-66
2023/05/07 05:46:21;;;;;;;7.60;7.10;;;15.70;99.90;;;;;;5080336;28;20308;-64
2023/05/07 05:48:47;;;;;;;6.60;6.20;;;15.80;99.90;;;;;;5072954;28;20170;-65
2023/05/07 05:51:12;;;;;;;6.77;6.27;;;15.80;99.90;;;;;;5083064;28;20598;-66
2023/05/07 05:53:38;;;;;;;6.90;6.40;;;15.90;99.90;;;;;;5091522;28;20253;-65
2023/05/07 05:56:04;;;;;;;6.13;5.73;;;15.90;99.90;;;;;;5093022;28;20562;-65
2023/05/07 05:58:30;;;;;;;6.43;6.00;;;16.00;99.90;;;;;;5075111;28;20178;-64
2023/05/07 06:00:56;;;;;;;7.67;6.83;;;16.00;99.90;;;;;;5070107;28;20700;-65
2023/05/07 06:03:22;;;;;;;7.73;7.27;;;16.00;99.90;;;;;;5087522;28;20170;-65
2023/05/07 06:05:47;;;;;;;6.90;6.40;;;16.10;99.90;;;;;;5092949;28;20198;-66
2023/05/07 06:08:13;;;;;;;6.37;5.93;;;16.30;99.90;;;;;;5078262;28;20210;-66
2023/05/07 06:10:39;;;;;;;7.30;6.70;;;16.40;99.90;;;;;;5073336;28;20303;-65
2023/05/07 06:13:04;;;;;;;6.83;6.43;;;16.50;99.90;;;;;;5092772;28;20177;-65
2023/05/07 06:15:30;;;;;;;6.10;5.50;;;16.60;99.90;;;;;;5092658;28;20208;-65
2023/05/07 06:17:57;;;;;;;6.77;6.17;;;16.70;99.90;;;;;;5072802;28;20185;-66
2023/05/07 06:20:23;;;;;;;7.93;7.43;;;16.90;99.90;;;;;;5072247;28;20166;-64
2023/05/07 06:22:48;;;;;;;6.30;5.90;;;17.00;99.90;;;;;;5090423;28;20206;-65
2023/05/07 06:25:14;;;;;;;8.57;7.97;;;17.20;99.90;;;;;;5091440;28;20189;-65
2023/05/07 06:27:40;;;;;;;5.63;5.33;;;17.40;99.90;;;;;;5078219;28;20166;-65
2023/05/07 06:30:07;;;;;;;6.37;5.97;;;17.60;99.90;;;;;;5092005;28;20527;-65
2023/05/07 06:32:32;;;;;;;7.57;7.17;;;17.80;99.90;;;;;;5091654;28;20707;-66
2023/05/07 06:34:58;;;;;;;8.37;7.87;;;17.90;99.90;;;;;;5092129;28;20193;-65
2023/05/07 06:37:23;;;;;;;6.00;5.60;;;18.10;99.90;;;;;;5077743;28;20200;-65
2023/05/07 06:39:49;;;;;;;6.73;6.33;;;18.40;99.90;;;;;;5071888;28;20170;-65
2023/05/07 06:42:15;;;;;;;6.37;6.00;;;18.60;99.90;;;;;;5092021;28;20176;-66
2023/05/07 06:44:40;;;;;;;6.90;6.50;;;18.70;99.90;;;;;;5093820;28;20169;-65
2023/05/07 06:47:06;;;;;;;5.93;5.47;;;19.00;99.90;;;;;;5071629;28;20687;-66
2023/05/07 06:49:32;;;;;;;5.50;5.20;;;19.20;99.90;;;;;;5071700;28;20211;-65
2023/05/07 06:51:58;;;;;;;5.57;5.27;;;19.30;99.90;;;;;;5080127;28;20174;-65
2023/05/07 06:54:23;;;;;;;6.43;5.93;;;19.30;99.90;;;;;;5092043;28;20165;-66
2023/05/07 06:56:49;;;;;;;6.00;5.70;;;19.40;99.90;;;;;;5073968;28;20209;-65
2023/05/07 06:59:15;;;;;;;7.20;6.70;;;19.40;99.90;;;;;;5071535;28;20231;-66
2023/05/07 07:01:41;;;;;;;5.40;5.10;;;19.50;99.90;;;;;;5072298;28;20218;-64
2023/05/07 07:04:07;;;;;;;6.53;6.03;;;19.60;99.90;;;;;;5071441;28;20194;-65
2023/05/07 07:06:32;;;;;;;5.90;5.57;;;19.60;99.90;;;;;;5075091;28;20198;-65
2023/05/07 07:08:59;;;;;;;5.10;4.80;;;19.80;99.90;;;;;;5089562;28;20173;-65
2023/05/07 07:11:25;;;;;;;4.40;4.20;;;20.00;99.90;;;;;;5091670;28;20177;-65
2023/05/07 07:13:51;;;;;;;5.75;5.45;;;20.30;99.90;;;;;;5091531;28;20189;-66
2023/05/07 07:16:17;;;;;;;4.97;4.68;;;20.70;99.90;;;;;;5071604;28;20209;-65
2023/05/07 07:18:43;;;;;;;5.32;5.03;;;21.10;99.90;;;;;;5071342;28;20255;-65
2023/05/07 07:21:09;;;;;;;4.47;4.18;;;21.40;99.90;;;;;;5088468;28;20177;-65
2023/05/07 07:23:35;;;;;;;5.13;4.75;;;21.70;99.90;;;;;;5091585;28;20204;-65
2023/05/07 07:26:00;;;;;;;5.35;5.07;;;22.00;99.90;;;;;;5075173;28;20202;-65
2023/05/07 07:28:26;;;;;;;5.53;5.13;;;22.30;99.90;;;;;;5071387;28;20174;-65
2023/05/07 07:30:51;;;;;;;5.35;5.15;;;22.50;99.90;;;;;;5084473;28;20177;-66
2023/05/07 07:33:17;;;;;;;5.05;4.85;;;22.60;99.90;;;;;;5091145;28;20174;-65
2023/05/07 07:35:42;;;;;;;4.55;4.35;;;22.60;99.90;;;;;;5078928;28;20213;-64
2023/05/07 07:38:08;;;;;;;3.70;3.50;;;22.70;99.90;;;;;;5071385;28;20574;-65
2023/05/07 07:40:37;;;;;;;4.03;3.83;;;23.10;99.90;;;;;;5069456;28;20178;-65
2023/05/07 07:43:02;;;;;;;3.95;3.75;;;23.50;99.90;;;;;;5070986;28;20162;-65
2023/05/07 07:45:28;;;;;;;4.30;4.10;;;23.70;99.90;;;;;;5089998;28;20231;-65
2023/05/07 07:47:54;;;;;;;3.67;3.47;;;23.70;99.90;;;;;;5091279;28;20252;-65
2023/05/07 07:50:20;;;;;;;3.60;3.40;;;23.80;99.90;;;;;;5074721;28;20589;-65
2023/05/07 07:52:45;;;;;;;4.65;4.45;;;23.90;99.90;;;;;;5081183;28;20181;-65
2023/05/07 07:55:11;;;;;;;4.35;4.05;;;23.90;99.90;;;;;;5089315;28;20224;-65
2023/05/07 07:57:37;;;;;;;4.22;3.85;;;23.70;99.90;;;;;;5082319;28;20531;-65
2023/05/07 08:00:03;;;;;;;4.32;4.13;;;23.50;99.90;;;;;;5074109;28;20170;-66
2023/05/07 08:02:29;;;;;;;4.80;4.60;;;23.30;99.90;;;;;;5084155;28;20578;-65
2023/05/07 08:04:55;;;;;;;5.03;4.82;;;23.30;99.90;;;;;;5070827;28;20170;-65
2023/05/07 08:07:22;;;;;;;4.85;4.65;;;23.00;99.90;;;;;;5071469;28;20178;-66
2023/05/07 08:09:48;;;;;;;4.20;4.00;;;23.20;99.90;;;;;;5074333;28;20261;-66
2023/05/07 08:12:14;;;;;;;3.92;3.72;;;23.50;99.90;;;;;;5077757;28;20256;-66
2023/05/07 08:14:40;;;;;;;3.75;3.55;;;23.90;99.90;;;;;;5094807;28;20526;-66
2023/05/07 08:17:06;;;;;;;3.33;3.15;;;24.50;99.90;;;;;;5092966;28;20185;-65
2023/05/07 08:19:32;;;;;;;3.67;3.47;;;25.20;99.90;;;;;;5074419;28;20177;-65
2023/05/07 08:21:57;;;;;;;3.28;3.08;;;25.60;99.90;;;;;;5074460;28;20170;-65
2023/05/07 08:24:23;;;;;;;3.42;3.22;;;25.60;99.90;;;;;;5094467;28;20170;-66
2023/05/07 08:26:49;;;;;;;3.92;3.72;;;25.30;99.90;;;;;;5081008;28;20601;-65
2023/05/07 08:29:15;;;;;;;3.40;3.22;;;25.20;99.90;;;;;;5088286;28;20206;-65
2023/05/07 08:31:40;;;;;;;3.60;3.40;;;25.10;99.90;;;;;;5076045;28;20182;-66
2023/05/07 08:34:06;;;;;;;3.60;3.40;;;25.10;99.90;;;;;;5074261;28;20968;-65
2023/05/07 08:36:32;;;;;;;3.72;3.53;;;25.10;99.90;;;;;;5090276;28;20213;-65
2023/05/07 08:38:58;;;;;;;3.63;3.50;;;25.20;99.90;;;;;;5094516;28;20180;-65
2023/05/07 08:41:24;;;;;;;3.00;2.90;;;25.40;99.90;;;;;;5079458;28;20181;-66
2023/05/07 08:43:50;;;;;;;3.50;3.30;;;25.60;99.90;;;;;;5074129;28;20624;-66
2023/05/07 08:46:22;;;;;;;3.60;3.40;;;25.60;99.90;;;;;;5086806;28;20204;-65
2023/05/07 08:48:49;;;;;;;3.58;3.28;;;25.30;99.90;;;;;;5094344;28;20249;-65
2023/05/07 08:51:19;;;;;;;3.40;3.20;;;25.30;99.90;;;;;;5081751;28;20632;-65
2023/05/07 08:53:46;;;;;;;3.17;3.08;;;25.20;99.90;;;;;;5074108;28;20190;-65
2023/05/07 08:56:13;;;;;;;3.78;3.58;;;24.90;99.90;;;;;;5083399;28;20210;-65
2023/05/07 08:58:38;;;;;;;3.25;3.05;;;24.90;99.90;;;;;;5094118;28;20162;-65
2023/05/07 09:01:09;;;;;;;3.65;3.45;;;25.00;99.90;;;;;;5082204;28;20208;-65
2023/05/07 09:03:36;;;;;;;3.70;3.50;;;25.20;99.90;;;;;;5073904;28;20170;-66
2023/05/07 09:06:02;;;;;;;3.38;3.17;;;25.50;99.90;;;;;;5081563;28;20694;-65
2023/05/07 09:08:27;;;;;;;3.60;3.40;;;25.70;99.90;;;;;;5094017;28;20180;-66
2023/05/07 09:10:54;;;;;;;3.65;3.42;;;26.00;99.90;;;;;;5092860;28;20260;-66
2023/05/07 09:13:20;;;;;;;4.40;4.20;;;26.10;99.90;;;;;;5094091;28;20181;-66
2023/05/07 09:15:45;;;;;;;3.35;3.25;;;26.20;99.90;;;;;;5089338;28;20213;-65
2023/05/07 09:18:12;;;;;;;5.03;4.72;;;26.50;99.90;;;;;;5073743;28;20256;-66
2023/05/07 09:20:39;;;;;;;4.43;4.22;;;26.70;99.90;;;;;;5074800;28;20182;-66
2023/05/07 09:23:06;;;;;;;4.05;3.85;;;26.90;99.90;;;;;;5093670;28;20170;-66
2023/05/07 09:25:33;;;;;;;4.45;4.25;;;27.10;99.90;;;;;;5092412;28;20201;-66
2023/05/07 09:28:03;;;;;;;4.18;3.95;;;27.10;99.90;;;;;;5073420;28;20536;-66
2023/05/07 09:30:33;;;;;;;3.08;2.95;;;27.50;99.90;;;;;;5073085;28;20178;-66
2023/05/07 09:33:00;;;;;;;3.03;2.92;;;27.80;99.90;;;;;;5073361;28;20179;-66
2023/05/07 09:35:29;;;;;;;3.70;3.40;;;28.30;99.90;;;;;;5073233;28;20201;-66
2023/05/07 09:37:59;;;;;;;4.10;3.90;;;28.60;99.90;;;;;;5092818;28;20639;-66
2023/05/07 09:40:29;;;;;;;3.80;3.60;;;28.70;99.90;;;;;;5093385;28;20280;-65
2023/05/07 09:42:55;;;;;;;3.45;3.25;;;28.90;99.90;;;;;;5074762;28;20187;-66
2023/05/07 09:45:28;;;;;;;2.83;2.72;;;29.40;99.90;;;;;;5073518;28;20272;-65
2023/05/07 09:47:56;;;;;;;3.20;3.10;;;29.90;99.90;;;;;;5091003;28;20177;-66
2023/05/07 09:50:28;;;;;;;3.97;3.78;;;30.30;99.90;;;;;;5093226;28;20257;-66
2023/05/07 09:52:55;;;;;;;4.47;4.28;;;31.00;99.90;;;;;;5075672;28;20174;-66
2023/05/07 09:55:21;;;;;;;3.50;3.30;;;31.10;99.90;;;;;;5072840;28;20549;-66
2023/05/07 09:57:50;;;;;;;2.50;2.35;;;31.20;99.90;;;;;;5088355;28;20208;-66
2023/05/07 10:00:18;;;;;;;2.85;2.75;;;31.50;99.90;;;;;;5090234;28;20201;-68
2023/05/07 10:02:48;;;;;;;2.85;2.65;;;31.70;99.90;;;;;;5078263;28;20224;-65
2023/05/07 10:05:14;;;;;;;3.00;2.90;;;31.80;99.90;;;;;;5072781;28;20217;-65
2023/05/07 10:07:40;;;;;;;3.00;2.70;;;31.60;99.90;;;;;;5085984;28;20181;-66
2023/05/07 10:10:07;;;;;;;3.00;2.88;;;31.20;99.90;;;;;;5091306;28;20179;-66
2023/05/07 10:12:38;;;;;;;2.53;2.38;;;30.90;99.90;;;;;;5091212;28;20255;-66
2023/05/07 10:15:08;;;;;;;2.70;2.50;;;31.00;99.90;;;;;;5083735;28;20204;-66
2023/05/07 10:17:39;;;;;;;2.95;2.75;;;30.80;99.90;;;;;;5072756;28;20170;-65
2023/05/07 10:20:06;;;;;;;2.50;2.30;;;30.60;99.90;;;;;;5080338;28;20174;-65
2023/05/07 10:22:40;;;;;;;2.45;2.35;;;30.60;99.90;;;;;;5092589;28;20691;-66
2023/05/07 10:25:31;;;;;;;2.33;2.22;;;30.90;99.90;;;;;;5079485;28;20656;-66
2023/05/07 10:28:03;;;;;;;2.88;2.67;;;31.40;99.90;;;;;;5072392;28;20181;-66
2023/05/07 10:31:02;;;;;;;3.05;2.85;;;31.90;99.90;;;;;;5086867;28;20586;-66
2023/05/07 10:33:30;;;;;;;2.88;2.67;;;32.20;99.90;;;;;;5092051;28;20170;-66
2023/05/07 10:36:01;;;;;;;2.30;2.20;;;32.00;99.90;;;;;;5073827;28;20225;-65
2023/05/07 10:38:27;;;;;;;2.50;2.40;;;32.20;99.90;;;;;;5072095;28;20212;-66
2023/05/07 10:40:53;;;;;;;2.70;2.60;;;32.30;99.90;;;;;;5088340;28;20655;-66
2023/05/07 10:43:19;;;;;;;2.88;2.67;;;32.50;99.90;;;;;;5092310;28;20169;-66
2023/05/07 10:46:17;;;;;;;2.40;2.20;;;32.40;99.90;;;;;;5076791;28;20192;-65
2023/05/07 10:49:05;;;;;;;2.20;2.10;;;32.00;99.90;;;;;;5071983;28;20243;-66
2023/05/07 10:51:32;;;;;;;2.58;2.47;;;31.60;99.90;;;;;;5071864;28;20726;-66
2023/05/07 10:54:12;;;;;;;2.42;2.33;;;31.60;99.90;;;;;;5071836;28;20244;-66
2023/05/07 10:56:40;;;;;;;2.90;2.78;;;30.70;99.90;;;;;;5070375;28;20213;-65
2023/05/07 10:59:21;;;;;;;3.17;2.97;;;30.20;99.90;;;;;;5071991;28;20197;-66
2023/05/07 11:01:49;;;;;;;2.65;2.53;;;29.80;99.90;;;;;;5072245;28;20253;-66
2023/05/07 11:04:17;;;;;;;3.40;3.20;;;29.80;99.90;;;;;;5072623;28;20166;-66
2023/05/07 11:07:05;;;;;;;2.90;2.72;;;29.90;99.90;;;;;;5072454;28;20225;-66
2023/05/07 11:09:51;;;;;;;2.95;2.83;;;29.70;99.90;;;;;;5073085;28;20582;-66
2023/05/07 11:12:40;;;;;;;2.90;2.80;;;29.60;99.90;;;;;;5087609;28;20220;-65
2023/05/07 11:15:10;;;;;;;3.60;3.40;;;29.60;99.90;;;;;;5085635;28;20429;-66
2023/05/07 11:18:03;;;;;;;3.25;3.15;;;29.30;99.90;;;;;;5071565;28;20253;-66
2023/05/07 11:20:54;;;;;;;5.70;5.40;;;28.70;99.90;;;;;;5077915;28;20552;-65
2023/05/07 11:23:35;;;;;;;4.18;3.90;;;28.30;99.90;;;;;;5091760;28;20165;-66
2023/05/07 11:26:08;;;;;;;3.78;3.58;;;28.20;99.90;;;;;;5079312;28;20202;-66
2023/05/07 11:28:38;;;;;;;3.17;3.08;;;28.10;99.90;;;;;;5070070;28;20174;-66
2023/05/07 11:31:04;;;;;;;3.17;3.08;;;27.90;99.90;;;;;;5071014;28;20202;-66
2023/05/07 11:33:30;;;;;;;3.88;3.60;;;27.90;99.90;;;;;;5071490;28;20198;-66
2023/05/07 11:35:57;;;;;;;3.47;3.28;;;27.90;99.90;;;;;;5080735;28;20213;-66
2023/05/07 11:38:23;;;;;;;3.63;3.42;;;28.00;99.90;;;;;;5091747;28;20531;-65
2023/05/07 11:40:52;;;;;;;3.65;3.45;;;28.40;99.90;;;;;;5082833;28;20643;-65
2023/05/07 11:43:18;;;;;;;3.97;3.78;;;28.50;99.90;;;;;;5072615;28;20174;-65
2023/05/07 11:45:48;;;;;;;5.18;4.95;;;28.80;99.90;;;;;;5082101;28;20193;-65
2023/05/07 11:48:14;;;;;;;4.13;3.92;;;29.20;99.90;;;;;;5095700;28;20200;-65
2023/05/07 11:50:53;;;;;;;3.00;2.83;;;29.80;99.90;;;;;;5089280;28;20666;-66
2023/05/07 11:53:20;;;;;;;2.72;2.63;;;30.40;99.90;;;;;;5075439;28;20264;-66
2023/05/07 11:55:45;;;;;;;2.53;2.42;;;30.90;99.90;;;;;;5076308;28;20205;-66
2023/05/07 11:58:20;;;;;;;2.63;2.53;;;31.10;99.90;;;;;;5075163;28;20177;-66
2023/05/07 12:00:53;;;;;;;2.70;2.50;;;31.00;99.90;;;;;;5074257;28;20183;-66
2023/05/07 12:03:19;;;;;;;2.90;2.80;;;30.30;99.90;;;;;;5075119;28;20171;-66
2023/05/07 12:05:46;;;;;;;3.13;3.00;;;29.80;99.90;;;;;;5079588;28;20185;-65
2023/05/07 12:08:18;;;;;;;2.80;2.70;;;29.40;99.90;;;;;;5095295;28;20192;-65
2023/05/07 12:10:45;;;;;;;4.28;4.07;;;29.00;99.90;;;;;;5093163;28;20185;-66
2023/05/07 12:13:18;;;;;;;4.53;4.32;;;28.70;99.90;;;;;;5095106;28;20200;-65
2023/05/07 12:15:43;;;;;;;4.18;3.88;;;28.40;99.90;;;;;;5091462;28;20294;-66
2023/05/07 12:18:11;;;;;;;3.40;3.20;;;28.20;99.90;;;;;;5074173;28;20264;-66
2023/05/07 12:20:37;;;;;;;3.20;3.05;;;27.90;99.90;;;;;;5075388;28;20197;-65
2023/05/07 12:23:03;;;;;;;4.15;3.95;;;27.80;99.90;;;;;;5074480;28;20177;-65
2023/05/07 12:25:36;;;;;;;4.38;4.18;;;27.60;99.90;;;;;;5091341;28;20197;-66
2023/05/07 12:28:05;;;;;;;3.67;3.47;;;27.40;99.90;;;;;;5094857;28;20642;-65
2023/05/07 12:30:41;;;;;;;3.55;3.35;;;27.50;99.90;;;;;;5077334;28;20225;-66
2023/05/07 12:33:07;;;;;;;4.72;4.53;;;27.70;99.90;;;;;;5074359;28;20181;-66
2023/05/07 12:35:39;;;;;;;3.38;3.17;;;27.80;99.90;;;;;;5075407;28;20217;-66
2023/05/07 12:38:17;;;;;;;3.60;3.40;;;27.90;99.90;;;;;;5074273;28;20174;-66
2023/05/07 12:40:54;;;;;;;3.42;3.22;;;28.10;99.90;;;;;;5091210;28;20169;-65
2023/05/07 12:43:23;;;;;;;3.70;3.50;;;27.90;99.90;;;;;;5094546;28;20195;-66
2023/05/07 12:45:51;;;;;;;3.42;3.17;;;28.10;99.90;;;;;;5076471;28;20234;-66